createdAt,value
2023-02-04T00:04:42.542Z,79.79
2023-02-04T00:10:06.364Z,79.72
2023-02-04T00:15:29.921Z,79.70
2023-02-04T00:20:52.443Z,79.79
2023-02-04T00:26:14.460Z,79.67
2023-02-04T00:31:36.158Z,79.46
2023-02-04T00:36:57.924Z,79.70
2023-02-04T00:42:20.257Z,79.55
2023-02-04T00:47:42.605Z,79.68
2023-02-04T00:53:05.424Z,79.70
2023-02-04T00:58:27.758Z,79.85
2023-02-04T01:03:49.262Z,79.69
2023-02-04T01:09:12.047Z,79.91
2023-02-04T01:14:34.049Z,79.98
2023-02-04T01:19:55.878Z,80.09
2023-02-04T01:25:18.109Z,79.86
2023-02-04T01:30:39.867Z,79.88
2023-02-04T01:36:01.768Z,79.42
2023-02-04T01:41:25.201Z,79.19
2023-02-04T01:46:46.833Z,78.91
2023-02-04T01:52:13.153Z,78.77
2023-02-04T01:57:35.963Z,78.70
2023-02-04T02:02:58.346Z,78.19
2023-02-04T02:08:20.672Z,77.59
2023-02-04T02:13:42.627Z,76.83
2023-02-04T02:19:06.234Z,77.16
2023-02-04T02:24:34.796Z,77.59
2023-02-04T02:29:56.874Z,78.03
2023-02-04T02:35:18.680Z,78.05
2023-02-04T02:40:41.640Z,77.85
2023-02-04T02:46:03.673Z,78.32
2023-02-04T02:51:27.302Z,78.15
2023-02-04T02:56:49.287Z,78.15
2023-02-04T03:02:13.918Z,78.45
2023-02-04T03:07:36.266Z,79.04
2023-02-04T03:12:59.505Z,78.79
2023-02-04T03:18:21.875Z,79.04
2023-02-04T03:23:43.954Z,79.29
2023-02-04T03:29:10.297Z,79.17
2023-02-04T03:34:32.310Z,79.51
2023-02-04T03:39:54.239Z,79.46
2023-02-04T03:45:16.951Z,79.34
2023-02-04T03:50:38.508Z,79.45
2023-02-04T03:56:00.450Z,78.42
2023-02-04T04:01:22.144Z,77.57
2023-02-04T04:06:44.175Z,78.41
2023-02-04T04:12:06.177Z,79.10
2023-02-04T04:17:28.188Z,79.78
2023-02-04T04:22:50.074Z,79.81
2023-02-04T04:28:12.070Z,79.76
2023-02-04T04:33:33.984Z,80.32
2023-02-04T04:38:55.726Z,81.12
2023-02-04T04:44:18.084Z,82.59
2023-02-04T04:49:39.721Z,82.20
2023-02-04T04:55:01.701Z,82.27
2023-02-04T05:00:24.180Z,80.77
2023-02-04T05:05:45.770Z,82.25
2023-02-04T05:11:08.086Z,81.31
2023-02-04T05:16:30.143Z,81.39
2023-02-04T05:21:52.123Z,81.48
2023-02-04T05:27:14.452Z,81.88
2023-02-04T05:32:36.834Z,83.09
2023-02-04T05:37:58.357Z,83.33
2023-02-04T05:43:20.358Z,83.54
2023-02-04T05:48:41.995Z,80.70
2023-02-04T05:54:04.536Z,79.06
2023-02-04T05:59:26.275Z,77.01
2023-02-04T06:04:47.957Z,76.04
2023-02-04T06:10:10.975Z,75.34
2023-02-04T06:15:33.062Z,74.57
2023-02-04T06:20:54.734Z,75.25
2023-02-04T06:26:16.557Z,75.72
2023-02-04T06:31:39.085Z,76.39
2023-02-04T06:37:01.340Z,76.37
2023-02-04T06:42:25.419Z,76.87
2023-02-04T06:47:47.210Z,76.86
2023-02-04T06:53:09.474Z,76.73
2023-02-04T06:58:31.223Z,75.44
2023-02-04T07:03:54.672Z,74.41
2023-02-04T07:09:16.621Z,73.79
2023-02-04T07:14:38.374Z,73.16
2023-02-04T07:20:00.658Z,73.03
2023-02-04T07:25:23.490Z,72.54
2023-02-04T07:30:45.362Z,72.06
2023-02-04T07:36:07.873Z,72.08
2023-02-04T07:41:29.508Z,71.93
2023-02-04T07:46:53.850Z,71.70
2023-02-04T07:52:16.002Z,71.50
2023-02-04T07:57:38.241Z,71.60
2023-02-04T08:03:00.023Z,71.29
2023-02-04T08:08:22.082Z,71.69
2023-02-04T08:13:44.065Z,71.86
2023-02-04T08:19:06.461Z,71.49
2023-02-04T08:24:30.520Z,71.15
2023-02-04T08:29:52.764Z,70.99
2023-02-04T08:35:14.464Z,70.97
2023-02-04T08:40:36.543Z,71.10
2023-02-04T08:45:58.395Z,71.04
2023-02-04T08:51:20.627Z,70.48
2023-02-04T08:56:44.298Z,69.92
2023-02-04T09:02:08.428Z,69.32
2023-02-04T09:07:30.673Z,69.23
2023-02-04T09:12:56.203Z,68.83
2023-02-04T09:18:22.194Z,68.60
2023-02-04T09:23:44.861Z,67.47
2023-02-04T09:29:16.048Z,66.05
2023-02-04T09:34:45.275Z,65.64
2023-02-04T09:40:07.224Z,64.79
2023-02-04T09:45:34.727Z,64.85
2023-02-04T09:51:07.463Z,63.47
2023-02-04T09:56:29.620Z,63.57
2023-02-04T10:02:02.363Z,63.91
2023-02-04T10:07:26.831Z,63.89
2023-02-04T10:12:50.534Z,61.61
2023-02-04T10:18:13.566Z,61.09
2023-02-04T10:23:35.702Z,60.47
2023-02-04T10:29:12.778Z,59.69
2023-02-04T10:34:40.041Z,59.93
2023-02-04T10:40:02.139Z,59.72
2023-02-04T10:45:29.696Z,58.78
2023-02-04T10:50:52.046Z,57.92
2023-02-04T10:56:18.895Z,56.72
2023-02-04T11:01:40.426Z,56.80
2023-02-04T11:07:02.356Z,57.46
2023-02-04T11:12:38.800Z,57.03
2023-02-04T11:18:07.779Z,57.14
2023-02-04T11:23:33.295Z,56.14
2023-02-04T11:29:01.079Z,56.17
2023-02-04T11:34:22.917Z,56.30
2023-02-04T11:39:49.575Z,55.01
2023-02-04T11:45:34.440Z,54.96
2023-02-04T11:51:00.325Z,55.52
2023-02-04T11:56:30.258Z,54.80
2023-02-04T12:01:52.387Z,54.81
2023-02-04T12:07:22.146Z,55.11
2023-02-04T12:12:49.558Z,55.73
2023-02-04T12:18:16.853Z,56.05
2023-02-04T12:23:38.973Z,56.23
2023-02-04T12:29:03.517Z,55.93
2023-02-04T12:34:25.337Z,55.77
2023-02-04T12:39:47.468Z,55.72
2023-02-04T12:45:15.951Z,55.99
2023-02-04T12:50:38.360Z,56.35
2023-02-04T12:56:00.182Z,56.36
2023-02-04T13:01:22.432Z,56.46
2023-02-04T13:06:45.544Z,58.02
2023-02-04T13:12:10.545Z,58.66
2023-02-04T13:17:32.716Z,58.84
2023-02-04T13:22:54.941Z,59.04
2023-02-04T13:28:16.924Z,59.72
2023-02-04T13:33:39.301Z,59.21
2023-02-04T13:39:01.035Z,59.45
2023-02-04T13:44:23.266Z,59.41
2023-02-04T13:49:45.600Z,59.10
2023-02-04T13:55:07.231Z,59.83
2023-02-04T14:00:29.458Z,60.06
2023-02-04T14:05:51.398Z,60.73
2023-02-04T14:11:13.421Z,61.37
2023-02-04T14:16:37.679Z,61.85
2023-02-04T14:21:59.682Z,61.71
2023-02-04T14:27:23.546Z,62.48
2023-02-04T14:32:45.591Z,61.92
2023-02-04T14:38:07.778Z,61.95
2023-02-04T14:43:29.403Z,62.20
2023-02-04T14:48:52.236Z,62.88
2023-02-04T14:54:14.974Z,65.24
2023-02-04T14:59:38.709Z,66.93
2023-02-04T15:05:01.338Z,66.91
2023-02-04T15:10:24.643Z,67.31
2023-02-04T15:15:46.942Z,67.06
2023-02-04T15:21:09.436Z,67.00
2023-02-04T15:26:31.163Z,67.20
2023-02-04T15:31:53.211Z,66.72
2023-02-04T15:37:14.917Z,66.19
2023-02-04T15:42:37.351Z,65.84
2023-02-04T15:48:00.499Z,65.42
2023-02-04T15:53:23.033Z,65.14
2023-02-04T15:58:45.346Z,64.98
2023-02-04T16:04:06.979Z,65.15
2023-02-04T16:09:28.810Z,63.45
2023-02-04T16:14:50.839Z,63.58
2023-02-04T16:20:12.632Z,63.91
2023-02-04T16:25:35.195Z,65.31
2023-02-04T16:30:57.231Z,65.76
2023-02-04T16:36:19.278Z,66.26
2023-02-04T16:41:41.532Z,66.47
2023-02-04T16:47:08.135Z,66.73
2023-02-04T16:52:30.357Z,67.68
2023-02-04T16:57:52.411Z,68.08
2023-02-04T17:03:14.799Z,68.05
2023-02-04T17:08:37.352Z,68.63
2023-02-04T17:14:04.295Z,68.96
2023-02-04T17:19:25.925Z,69.01
2023-02-04T17:24:47.951Z,69.05
2023-02-04T17:30:10.858Z,69.01
2023-02-04T17:35:33.530Z,68.48
2023-02-04T17:40:56.260Z,68.70
2023-02-04T17:46:18.361Z,68.29
2023-02-04T17:51:40.614Z,67.80
2023-02-04T17:57:20.638Z,67.51
2023-02-04T18:02:44.487Z,66.83
2023-02-04T18:08:21.742Z,66.31
2023-02-04T18:13:44.073Z,65.40
2023-02-04T18:19:20.099Z,65.03
2023-02-04T18:24:45.150Z,64.43
2023-02-04T18:30:19.839Z,64.05
2023-02-04T18:35:44.196Z,64.03
2023-02-04T18:41:20.668Z,63.22
2023-02-04T18:46:47.008Z,63.57
2023-02-04T18:52:18.880Z,63.82
2023-02-04T18:57:40.422Z,63.76
2023-02-04T19:03:25.012Z,63.86
2023-02-04T19:08:46.947Z,63.87
2023-02-04T19:14:21.640Z,63.92
2023-02-04T19:19:53.184Z,65.60
2023-02-04T19:25:35.883Z,66.30
2023-02-04T19:31:26.522Z,67.06
2023-02-04T19:36:50.227Z,71.84
2023-02-04T19:42:27.067Z,72.68
2023-02-04T19:47:50.678Z,70.72
2023-02-04T19:53:32.464Z,70.23
2023-02-04T19:58:55.738Z,70.59
2023-02-04T20:04:19.853Z,70.85
2023-02-04T20:09:42.070Z,70.36
2023-02-04T20:15:23.712Z,69.79
2023-02-04T20:20:47.108Z,69.25
2023-02-04T20:26:10.233Z,68.90
2023-02-04T20:31:38.774Z,68.53
2023-02-04T20:37:00.410Z,67.74
2023-02-04T20:42:34.491Z,67.69
2023-02-04T20:48:02.437Z,67.36
2023-02-04T20:53:42.769Z,67.08
2023-02-04T20:59:12.190Z,66.40
2023-02-04T21:04:39.628Z,66.03
2023-02-04T21:10:06.317Z,65.32
2023-02-04T21:15:31.277Z,65.52
2023-02-04T21:20:53.486Z,64.46
2023-02-04T21:26:16.283Z,63.98
2023-02-04T21:31:39.227Z,64.36
2023-02-04T21:37:01.961Z,64.19
2023-02-04T21:42:24.079Z,63.44
2023-02-04T21:47:47.418Z,63.72
2023-02-04T21:53:09.739Z,64.01
2023-02-04T21:58:33.333Z,64.18
2023-02-04T22:03:55.544Z,64.14
2023-02-04T22:09:18.340Z,64.27
2023-02-04T22:14:40.570Z,64.21
2023-02-04T22:20:03.040Z,64.23
2023-02-04T22:25:25.033Z,64.55
2023-02-04T22:30:46.662Z,64.20
2023-02-04T22:36:08.893Z,64.50
2023-02-04T22:41:30.723Z,64.84
2023-02-04T22:46:54.006Z,65.09
2023-02-04T22:52:15.873Z,65.19
2023-02-04T22:57:38.017Z,65.45
2023-02-04T23:02:59.810Z,65.89
2023-02-04T23:08:21.670Z,65.94
2023-02-04T23:13:43.445Z,66.14
2023-02-04T23:19:05.729Z,65.95
2023-02-04T23:24:27.469Z,66.16
2023-02-04T23:29:49.291Z,66.20
2023-02-04T23:35:11.387Z,66.00
2023-02-04T23:40:34.614Z,66.34
2023-02-04T23:45:57.445Z,66.41
2023-02-04T23:51:19.634Z,66.79
2023-02-04T23:56:41.746Z,67.15
